createdAt,value
2022-12-16T00:00:17.996Z,1002.35
2022-12-16T00:01:17.988Z,1002.38
2022-12-16T00:02:17.979Z,1002.39
2022-12-16T00:03:18.004Z,1002.39
2022-12-16T00:04:17.884Z,1002.39
2022-12-16T00:05:17.863Z,1002.37
2022-12-16T00:06:17.823Z,1002.42
2022-12-16T00:07:17.799Z,1002.38
2022-12-16T00:08:17.763Z,1002.38
2022-12-16T00:09:17.738Z,1002.40
2022-12-16T00:10:17.709Z,1002.37
2022-12-16T00:11:17.685Z,1002.38
2022-12-16T00:12:17.652Z,1002.39
2022-12-16T00:13:17.630Z,1002.41
2022-12-16T00:14:17.598Z,1002.38
2022-12-16T00:15:17.570Z,1002.35
2022-12-16T00:16:17.645Z,1002.38
2022-12-16T00:17:17.536Z,1002.37
2022-12-16T00:18:17.482Z,1002.35
2022-12-16T00:19:17.457Z,1002.33
2022-12-16T00:20:17.420Z,1002.37
2022-12-16T00:21:17.406Z,1002.38
2022-12-16T00:22:17.362Z,1002.35
2022-12-16T00:23:17.341Z,1002.38
2022-12-16T00:24:17.303Z,1002.38
2022-12-16T00:25:17.278Z,1002.36
2022-12-16T00:26:17.255Z,1002.39
2022-12-16T00:27:17.222Z,1002.39
2022-12-16T00:28:17.198Z,1002.37
2022-12-16T00:29:17.169Z,1002.38
2022-12-16T00:30:17.139Z,1002.38
2022-12-16T00:31:17.182Z,1002.40
2022-12-16T00:32:17.078Z,1002.40
2022-12-16T00:33:17.068Z,1002.42
2022-12-16T00:34:17.027Z,1002.43
2022-12-16T00:35:16.996Z,1002.44
2022-12-16T00:36:16.966Z,1002.42
2022-12-16T00:37:16.932Z,1002.47
2022-12-16T00:38:16.904Z,1002.54
2022-12-16T00:39:16.880Z,1002.50
2022-12-16T00:40:16.845Z,1002.48
2022-12-16T00:41:16.819Z,1002.50
2022-12-16T00:42:16.789Z,1002.51
2022-12-16T00:43:16.766Z,1002.48
2022-12-16T00:44:16.734Z,1002.48
2022-12-16T00:45:16.706Z,1002.49
2022-12-16T00:46:16.748Z,1002.47
2022-12-16T00:47:16.658Z,1002.43
2022-12-16T00:48:16.617Z,1002.43
2022-12-16T00:49:16.609Z,1002.43
2022-12-16T00:50:16.556Z,1002.40
2022-12-16T00:51:16.539Z,1002.39
2022-12-16T00:52:16.501Z,1002.38
2022-12-16T00:53:16.472Z,1002.40
2022-12-16T00:54:16.444Z,1002.42
2022-12-16T00:55:16.418Z,1002.43
2022-12-16T00:56:16.385Z,1002.44
2022-12-16T00:57:16.357Z,1002.45
2022-12-16T00:58:16.329Z,1002.45
2022-12-16T00:59:16.302Z,1002.44
2022-12-16T01:00:16.269Z,1002.43
2022-12-16T01:01:16.320Z,1002.45
2022-12-16T01:02:16.414Z,1002.49
2022-12-16T01:03:21.312Z,1002.47
2022-12-16T01:04:16.154Z,1002.52
2022-12-16T01:05:16.156Z,1002.49
2022-12-16T01:06:16.096Z,1002.47
2022-12-16T01:07:16.069Z,1002.45
2022-12-16T01:08:16.041Z,1002.50
2022-12-16T01:09:16.011Z,1002.47
2022-12-16T01:10:15.978Z,1002.49
2022-12-16T01:11:15.955Z,1002.51
2022-12-16T01:12:15.918Z,1002.51
2022-12-16T01:13:15.899Z,1002.55
2022-12-16T01:14:15.861Z,1002.53
2022-12-16T01:15:15.835Z,1002.52
2022-12-16T01:16:15.922Z,1002.54
2022-12-16T01:17:15.779Z,1002.52
2022-12-16T01:18:15.749Z,1002.55
2022-12-16T01:19:15.717Z,1002.55
2022-12-16T01:20:15.685Z,1002.57
2022-12-16T01:21:15.701Z,1002.50
2022-12-16T01:22:15.634Z,1002.54
2022-12-16T01:23:15.609Z,1002.50
2022-12-16T01:24:15.574Z,1002.54
2022-12-16T01:25:15.556Z,1002.56
2022-12-16T01:26:15.520Z,1002.56
2022-12-16T01:27:15.482Z,1002.58
2022-12-16T01:28:15.463Z,1002.54
2022-12-16T01:29:15.423Z,1002.56
2022-12-16T01:30:15.399Z,1002.56
2022-12-16T01:31:15.442Z,1002.58
2022-12-16T01:32:15.398Z,1002.58
2022-12-16T01:33:15.314Z,1002.56
2022-12-16T01:34:15.291Z,1002.61
2022-12-16T01:35:50.840Z,1002.59
2022-12-16T01:36:15.229Z,1002.63
2022-12-16T01:37:15.217Z,1002.59
2022-12-16T01:38:15.167Z,1002.63
2022-12-16T01:39:15.137Z,1002.62
2022-12-16T01:40:15.113Z,1002.66
2022-12-16T01:41:15.078Z,1002.62
2022-12-16T01:42:15.056Z,1002.65
2022-12-16T01:43:15.020Z,1002.68
2022-12-16T01:44:15.001Z,1002.69
2022-12-16T01:45:14.969Z,1002.70
2022-12-16T01:46:15.031Z,1002.71
2022-12-16T01:47:14.912Z,1002.67
2022-12-16T01:48:14.886Z,1002.71
2022-12-16T01:49:14.851Z,1002.71
2022-12-16T01:50:14.824Z,1002.76
2022-12-16T01:51:14.803Z,1002.73
2022-12-16T01:52:14.768Z,1002.76
2022-12-16T01:53:14.752Z,1002.78
2022-12-16T01:54:14.708Z,1002.81
2022-12-16T01:55:14.680Z,1002.77
2022-12-16T01:56:14.649Z,1002.83
2022-12-16T01:57:14.620Z,1002.80
2022-12-16T01:58:14.598Z,1002.82
2022-12-16T01:59:14.566Z,1002.83
2022-12-16T02:00:14.542Z,1002.86
2022-12-16T02:01:14.601Z,1002.81
2022-12-16T02:02:14.543Z,1002.84
2022-12-16T02:03:14.545Z,1002.83
2022-12-16T02:04:14.423Z,1002.83
2022-12-16T02:05:14.390Z,1002.80
2022-12-16T02:06:14.364Z,1002.80
2022-12-16T02:07:14.336Z,1002.77
2022-12-16T02:08:14.311Z,1002.79
2022-12-16T02:09:14.302Z,1002.81
2022-12-16T02:10:14.249Z,1002.78
2022-12-16T02:11:14.214Z,1002.80
2022-12-16T02:12:14.194Z,1002.83
2022-12-16T02:13:14.167Z,1002.82
2022-12-16T02:14:14.141Z,1002.83
2022-12-16T02:15:14.110Z,1002.82
2022-12-16T02:16:17.135Z,1002.84
2022-12-16T02:17:14.122Z,1002.83
2022-12-16T02:18:14.023Z,1002.85
2022-12-16T02:19:13.985Z,1002.83
2022-12-16T02:20:13.959Z,1002.85
2022-12-16T02:21:13.932Z,1002.82
2022-12-16T02:22:13.907Z,1002.85
2022-12-16T02:23:13.875Z,1002.80
2022-12-16T02:24:13.844Z,1002.80
2022-12-16T02:25:13.892Z,1002.79
2022-12-16T02:26:13.788Z,1002.80
2022-12-16T02:27:13.757Z,1002.83
2022-12-16T02:28:13.728Z,1002.80
2022-12-16T02:29:13.698Z,1002.85
2022-12-16T02:30:13.674Z,1002.87
2022-12-16T02:31:13.673Z,1002.84
2022-12-16T02:32:13.617Z,1002.84
2022-12-16T02:33:13.590Z,1002.82
2022-12-16T02:34:13.561Z,1002.82
2022-12-16T02:35:13.526Z,1002.83
2022-12-16T02:36:13.504Z,1002.84
2022-12-16T02:37:13.469Z,1002.86
2022-12-16T02:38:13.450Z,1002.83
2022-12-16T02:39:13.412Z,1002.83
2022-12-16T02:40:13.388Z,1002.85
2022-12-16T02:41:13.442Z,1002.85
2022-12-16T02:42:13.336Z,1002.84
2022-12-16T02:43:13.299Z,1002.87
2022-12-16T02:44:13.275Z,1002.88
2022-12-16T02:45:13.236Z,1002.90
2022-12-16T02:46:13.309Z,1002.89
2022-12-16T02:47:13.181Z,1002.90
2022-12-16T02:48:13.153Z,1002.92
2022-12-16T02:49:13.124Z,1002.90
2022-12-16T02:50:13.101Z,1002.95
2022-12-16T02:51:13.067Z,1002.92
2022-12-16T02:52:13.042Z,1002.98
2022-12-16T02:53:13.005Z,1002.96
2022-12-16T02:54:12.986Z,1002.96
2022-12-16T02:55:12.950Z,1002.98
2022-12-16T02:56:12.927Z,1002.98
2022-12-16T02:57:12.912Z,1002.98
2022-12-16T02:58:12.872Z,1002.97
2022-12-16T02:59:12.834Z,1002.99
2022-12-16T03:00:12.816Z,1002.93
2022-12-16T03:01:12.845Z,1002.92
2022-12-16T03:02:12.927Z,1002.94
2022-12-16T03:03:12.786Z,1002.92
2022-12-16T03:04:12.695Z,1002.96
2022-12-16T03:05:12.660Z,1002.97
2022-12-16T03:06:12.641Z,1003.02
2022-12-16T03:07:12.603Z,1003.05
2022-12-16T03:08:12.585Z,1003.05
2022-12-16T03:09:12.547Z,1003.05
2022-12-16T03:10:12.525Z,1003.07
2022-12-16T03:11:12.490Z,1003.05
2022-12-16T03:12:12.465Z,1003.05
2022-12-16T03:13:12.451Z,1002.99
2022-12-16T03:14:12.404Z,1002.98
2022-12-16T03:15:12.375Z,1002.97
2022-12-16T03:16:12.397Z,1002.96
2022-12-16T03:17:12.315Z,1003.00
2022-12-16T03:18:12.295Z,1003.00
2022-12-16T03:19:12.261Z,1002.96
2022-12-16T03:20:12.247Z,1002.98
2022-12-16T03:21:12.202Z,1003.02
2022-12-16T03:22:12.173Z,1003.02
2022-12-16T03:23:12.141Z,1003.05
2022-12-16T03:24:12.117Z,1003.00
2022-12-16T03:25:12.091Z,1003.06
2022-12-16T03:26:12.055Z,1003.06
2022-12-16T03:27:12.026Z,1003.09
2022-12-16T03:28:11.999Z,1003.14
2022-12-16T03:29:11.985Z,1003.14
2022-12-16T03:30:11.944Z,1003.19
2022-12-16T03:31:11.969Z,1003.19
2022-12-16T03:32:11.882Z,1003.23
2022-12-16T03:33:11.852Z,1003.26
2022-12-16T03:34:11.833Z,1003.26
2022-12-16T03:35:11.795Z,1003.24
2022-12-16T03:36:11.775Z,1003.26
2022-12-16T03:37:11.737Z,1003.23
2022-12-16T03:38:11.714Z,1003.24
2022-12-16T03:39:11.681Z,1003.26
2022-12-16T03:40:11.654Z,1003.26
2022-12-16T03:41:11.619Z,1003.26
2022-12-16T03:42:11.600Z,1003.25
2022-12-16T03:43:11.564Z,1003.24
2022-12-16T03:44:11.532Z,1003.25
2022-12-16T03:45:11.582Z,1003.26
2022-12-16T03:46:11.566Z,1003.27
2022-12-16T03:47:11.445Z,1003.30
2022-12-16T03:48:11.417Z,1003.29
2022-12-16T03:49:11.387Z,1003.26
2022-12-16T03:50:11.362Z,1003.26
2022-12-16T03:51:11.330Z,1003.29
2022-12-16T03:52:11.303Z,1003.33
2022-12-16T03:53:11.268Z,1003.29
2022-12-16T03:54:11.243Z,1003.29
2022-12-16T03:55:11.215Z,1003.32
2022-12-16T03:56:11.186Z,1003.33
2022-12-16T03:57:15.461Z,1003.32
2022-12-16T03:58:11.130Z,1003.31
2022-12-16T03:59:11.094Z,1003.35
2022-12-16T04:00:11.067Z,1003.32
2022-12-16T04:01:11.142Z,1003.30
2022-12-16T04:02:11.277Z,1003.30
2022-12-16T04:03:11.230Z,1003.32
2022-12-16T04:04:10.952Z,1003.27
2022-12-16T04:05:10.921Z,1003.27
2022-12-16T04:06:10.897Z,1003.24
2022-12-16T04:07:10.866Z,1003.23
2022-12-16T04:08:10.837Z,1003.21
2022-12-16T04:09:10.803Z,1003.23
2022-12-16T04:10:10.780Z,1003.20
2022-12-16T04:11:10.749Z,1003.25
2022-12-16T04:12:10.718Z,1003.25
2022-12-16T04:13:10.693Z,1003.28
2022-12-16T04:14:10.666Z,1003.23
2022-12-16T04:15:10.639Z,1003.24
2022-12-16T04:16:10.717Z,1003.24
2022-12-16T04:17:10.689Z,1003.26
2022-12-16T04:18:10.548Z,1003.28
2022-12-16T04:19:10.519Z,1003.28
2022-12-16T04:20:10.487Z,1003.33
2022-12-16T04:21:10.465Z,1003.31
2022-12-16T04:22:10.436Z,1003.39
2022-12-16T04:23:10.403Z,1003.36
2022-12-16T04:24:10.372Z,1003.37
2022-12-16T04:25:10.339Z,1003.41
2022-12-16T04:26:10.315Z,1003.41
2022-12-16T04:27:15.289Z,1003.39
2022-12-16T04:28:10.256Z,1003.42
2022-12-16T04:29:10.226Z,1003.42
2022-12-16T04:30:10.200Z,1003.42
2022-12-16T04:31:10.233Z,1003.45
2022-12-16T04:32:10.140Z,1003.37
2022-12-16T04:33:10.130Z,1003.41
2022-12-16T04:34:10.086Z,1003.40
2022-12-16T04:35:10.052Z,1003.41
2022-12-16T04:36:10.026Z,1003.38
2022-12-16T04:37:09.994Z,1003.43
2022-12-16T04:38:09.965Z,1003.41
2022-12-16T04:39:09.934Z,1003.51
2022-12-16T04:40:09.902Z,1003.51
2022-12-16T04:41:09.872Z,1003.48
2022-12-16T04:42:09.843Z,1003.45
2022-12-16T04:43:09.813Z,1003.48
2022-12-16T04:44:09.792Z,1003.49
2022-12-16T04:45:09.757Z,1003.48
2022-12-16T04:46:09.816Z,1003.51
2022-12-16T04:47:09.700Z,1003.56
2022-12-16T04:48:09.674Z,1003.58
2022-12-16T04:49:09.653Z,1003.61
2022-12-16T04:50:09.613Z,1003.63
2022-12-16T04:51:09.588Z,1003.68
2022-12-16T04:52:09.551Z,1003.60
2022-12-16T04:53:09.524Z,1003.66
2022-12-16T04:54:09.490Z,1003.60
2022-12-16T04:55:09.461Z,1003.60
2022-12-16T04:56:09.442Z,1003.58
2022-12-16T04:57:09.410Z,1003.58
2022-12-16T04:58:09.379Z,1003.59
2022-12-16T04:59:09.342Z,1003.63
2022-12-16T05:00:09.321Z,1003.61
2022-12-16T05:01:09.365Z,1003.65
2022-12-16T05:02:09.424Z,1003.65
2022-12-16T05:03:09.268Z,1003.66
2022-12-16T05:04:09.198Z,1003.68
2022-12-16T05:05:09.193Z,1003.68
2022-12-16T05:06:09.141Z,1003.69
2022-12-16T05:07:09.109Z,1003.64
2022-12-16T05:08:09.086Z,1003.66
2022-12-16T05:09:09.052Z,1003.65
2022-12-16T05:10:09.027Z,1003.65
2022-12-16T05:11:08.998Z,1003.67
2022-12-16T05:12:08.966Z,1003.67
2022-12-16T05:13:08.933Z,1003.73
2022-12-16T05:14:08.913Z,1003.77
2022-12-16T05:15:08.883Z,1003.73
2022-12-16T05:16:08.882Z,1003.74
2022-12-16T05:17:08.886Z,1003.75
2022-12-16T05:18:08.797Z,1003.76
2022-12-16T05:19:08.760Z,1003.76
2022-12-16T05:20:08.737Z,1003.78
2022-12-16T05:21:08.848Z,1003.78
2022-12-16T05:22:08.675Z,1003.80
2022-12-16T05:23:08.644Z,1003.80
2022-12-16T05:24:08.615Z,1003.82
2022-12-16T05:25:08.584Z,1003.83
2022-12-16T05:26:08.560Z,1003.80
2022-12-16T05:27:08.529Z,1003.83
2022-12-16T05:28:08.495Z,1003.83
2022-12-16T05:29:08.472Z,1003.85
2022-12-16T05:30:08.444Z,1003.86
2022-12-16T05:31:08.458Z,1003.86
2022-12-16T05:32:08.380Z,1003.84
2022-12-16T05:33:08.351Z,1003.90
2022-12-16T05:34:08.332Z,1003.85
2022-12-16T05:35:08.301Z,1003.89
2022-12-16T05:36:08.271Z,1003.87
2022-12-16T05:37:08.260Z,1003.90
2022-12-16T05:38:08.209Z,1003.89
2022-12-16T05:39:08.177Z,1003.91
2022-12-16T05:40:08.142Z,1003.83
2022-12-16T05:41:08.122Z,1003.93
2022-12-16T05:42:08.089Z,1003.94
2022-12-16T05:43:10.910Z,1003.94
2022-12-16T05:44:08.032Z,1003.96
2022-12-16T05:45:08.001Z,1003.99
2022-12-16T05:46:08.105Z,1004.02
2022-12-16T05:47:08.023Z,1004.01
2022-12-16T05:48:07.908Z,1003.97
2022-12-16T05:49:07.887Z,1004.04
2022-12-16T05:50:07.857Z,1004.01
2022-12-16T05:51:07.826Z,1004.05
2022-12-16T05:52:07.799Z,1004.01
2022-12-16T05:53:07.856Z,1004.05
2022-12-16T05:54:07.741Z,1004.02
2022-12-16T05:55:07.713Z,1004.04
2022-12-16T05:56:07.678Z,1004.06
2022-12-16T05:57:07.654Z,1004.06
2022-12-16T05:58:07.620Z,1004.08
2022-12-16T05:59:07.698Z,1004.06
2022-12-16T06:00:07.559Z,1004.11
2022-12-16T06:01:07.543Z,1004.15
2022-12-16T06:02:07.654Z,1004.14
2022-12-16T06:03:07.583Z,1004.18
2022-12-16T06:04:09.753Z,1004.18
2022-12-16T06:05:07.412Z,1004.20
2022-12-16T06:06:07.389Z,1004.19
2022-12-16T06:07:07.372Z,1004.22
2022-12-16T06:08:07.334Z,1004.21
2022-12-16T06:09:07.324Z,1004.23
2022-12-16T06:10:07.271Z,1004.22
2022-12-16T06:11:07.249Z,1004.26
2022-12-16T06:12:07.210Z,1004.27
2022-12-16T06:13:07.182Z,1004.24
2022-12-16T06:14:07.151Z,1004.29
2022-12-16T06:15:07.125Z,1004.31
2022-12-16T06:16:09.096Z,1004.29
2022-12-16T06:17:07.068Z,1004.33
2022-12-16T06:18:07.036Z,1004.38
2022-12-16T06:19:07.007Z,1004.34
2022-12-16T06:20:06.974Z,1004.35
2022-12-16T06:21:06.948Z,1004.36
2022-12-16T06:22:06.913Z,1004.33
2022-12-16T06:23:06.893Z,1004.35
2022-12-16T06:24:06.858Z,1004.36
2022-12-16T06:25:06.849Z,1004.39
2022-12-16T06:26:06.798Z,1004.39
2022-12-16T06:27:06.779Z,1004.40
2022-12-16T06:28:06.740Z,1004.40
2022-12-16T06:29:06.712Z,1004.45
2022-12-16T06:30:06.680Z,1004.43
2022-12-16T06:31:06.758Z,1004.41
2022-12-16T06:32:06.623Z,1004.46
2022-12-16T06:33:06.594Z,1004.47
2022-12-16T06:34:06.565Z,1004.49
2022-12-16T06:35:06.535Z,1004.48
2022-12-16T06:36:06.501Z,1004.48
2022-12-16T06:37:06.477Z,1004.51
2022-12-16T06:38:06.458Z,1004.53
2022-12-16T06:39:06.411Z,1004.55
2022-12-16T06:40:06.382Z,1004.52
2022-12-16T06:41:06.497Z,1004.57
2022-12-16T06:42:06.328Z,1004.58
2022-12-16T06:43:06.296Z,1004.59
2022-12-16T06:44:06.271Z,1004.58
2022-12-16T06:45:06.238Z,1004.60
2022-12-16T06:46:06.244Z,1004.58
2022-12-16T06:47:06.179Z,1004.59
2022-12-16T06:48:06.149Z,1004.61
2022-12-16T06:49:06.118Z,1004.58
2022-12-16T06:50:06.086Z,1004.62
2022-12-16T06:51:06.065Z,1004.68
2022-12-16T06:52:06.034Z,1004.68
2022-12-16T06:53:06.004Z,1004.68
2022-12-16T06:54:05.970Z,1004.74
2022-12-16T06:55:05.944Z,1004.76
2022-12-16T06:56:05.915Z,1004.76
2022-12-16T06:57:05.917Z,1004.81
2022-12-16T06:58:09.920Z,1004.83
2022-12-16T06:59:05.826Z,1004.85
2022-12-16T07:00:05.791Z,1004.86
2022-12-16T07:01:05.849Z,1004.87
2022-12-16T07:02:05.932Z,1004.90
2022-12-16T07:03:05.796Z,1004.89
2022-12-16T07:04:05.674Z,1004.93
2022-12-16T07:05:06.656Z,1004.94
2022-12-16T07:06:05.620Z,1004.96
2022-12-16T07:07:05.600Z,1004.97
2022-12-16T07:08:05.559Z,1005.01
2022-12-16T07:09:05.533Z,1005.02
2022-12-16T07:10:05.501Z,1005.00
2022-12-16T07:11:16.047Z,1005.03
2022-12-16T07:12:05.441Z,1005.05
2022-12-16T07:13:05.432Z,1005.05
2022-12-16T07:14:05.395Z,1005.05
2022-12-16T07:15:05.373Z,1005.11
2022-12-16T07:16:05.388Z,1005.12
2022-12-16T07:17:05.303Z,1005.11
2022-12-16T07:18:05.265Z,1005.12
2022-12-16T07:19:05.236Z,1005.13
2022-12-16T07:20:05.211Z,1005.16
2022-12-16T07:21:05.179Z,1005.18
2022-12-16T07:22:05.144Z,1005.20
2022-12-16T07:23:12.171Z,1005.22
2022-12-16T07:24:05.091Z,1005.24
2022-12-16T07:25:05.073Z,1005.25
2022-12-16T07:26:05.024Z,1005.30
2022-12-16T07:27:05.005Z,1005.30
2022-12-16T07:28:05.142Z,1005.29
2022-12-16T07:29:04.959Z,1005.33
2022-12-16T07:30:04.911Z,1005.34
2022-12-16T07:31:04.883Z,1005.37
2022-12-16T07:32:04.940Z,1005.39
2022-12-16T07:33:04.825Z,1005.41
2022-12-16T07:34:04.787Z,1005.47
2022-12-16T07:35:04.762Z,1005.50
2022-12-16T07:36:04.732Z,1005.50
2022-12-16T07:37:04.703Z,1005.57
2022-12-16T07:38:04.671Z,1005.58
2022-12-16T07:39:04.644Z,1005.60
2022-12-16T07:40:04.614Z,1005.59
2022-12-16T07:41:04.587Z,1005.64
2022-12-16T07:42:04.558Z,1005.64
2022-12-16T07:43:04.526Z,1005.63
2022-12-16T07:44:04.498Z,1005.64
2022-12-16T07:45:04.500Z,1005.67
2022-12-16T07:46:04.522Z,1005.66
2022-12-16T07:47:04.407Z,1005.69
2022-12-16T07:48:04.374Z,1005.74
2022-12-16T07:49:04.351Z,1005.74
2022-12-16T07:50:04.313Z,1005.82
2022-12-16T07:51:04.293Z,1005.79
2022-12-16T07:52:04.269Z,1005.83
2022-12-16T07:53:04.231Z,1005.86
2022-12-16T07:54:04.197Z,1005.89
2022-12-16T07:55:04.176Z,1005.92
2022-12-16T07:56:04.136Z,1005.92
2022-12-16T07:57:04.107Z,1005.97
2022-12-16T07:58:04.084Z,1005.97
2022-12-16T07:59:04.056Z,1006.04
2022-12-16T08:00:04.026Z,1006.02
2022-12-16T08:01:09.160Z,1006.03
2022-12-16T08:02:04.141Z,1006.00
2022-12-16T08:03:04.095Z,1005.98
2022-12-16T08:04:04.000Z,1006.01
2022-12-16T08:05:03.874Z,1005.99
2022-12-16T08:06:03.874Z,1006.01
2022-12-16T08:07:03.840Z,1006.00
2022-12-16T08:08:03.786Z,1006.07
2022-12-16T08:09:03.757Z,1006.05
2022-12-16T08:10:03.749Z,1006.09
2022-12-16T08:11:03.700Z,1006.08
2022-12-16T08:12:03.672Z,1006.11
2022-12-16T08:13:03.639Z,1006.13
2022-12-16T08:14:03.612Z,1006.19
2022-12-16T08:15:03.597Z,1006.18
2022-12-16T08:16:03.551Z,1006.21
2022-12-16T08:17:03.609Z,1006.21
2022-12-16T08:18:03.497Z,1006.20
2022-12-16T08:19:10.565Z,1006.23
2022-12-16T08:20:03.433Z,1006.27
2022-12-16T08:21:03.411Z,1006.28
2022-12-16T08:22:03.380Z,1006.30
2022-12-16T08:23:03.350Z,1006.30
2022-12-16T08:24:03.313Z,1006.32
2022-12-16T08:25:03.293Z,1006.40
2022-12-16T08:26:03.257Z,1006.40
2022-12-16T08:27:03.234Z,1006.43
2022-12-16T08:28:03.206Z,1006.47
2022-12-16T08:29:27.184Z,1006.45
2022-12-16T08:30:03.141Z,1006.48
2022-12-16T08:31:03.144Z,1006.49
2022-12-16T08:32:03.089Z,1006.50
2022-12-16T08:33:12.146Z,1006.52
2022-12-16T08:34:03.026Z,1006.49
2022-12-16T08:35:03.012Z,1006.50
2022-12-16T08:36:02.974Z,1006.59
2022-12-16T08:37:02.955Z,1006.68
2022-12-16T08:38:02.933Z,1006.73
2022-12-16T08:39:02.894Z,1006.75
2022-12-16T08:40:33.695Z,1006.76
2022-12-16T08:41:02.846Z,1006.76
2022-12-16T08:42:02.814Z,1006.71
2022-12-16T08:43:05.544Z,1006.70
2022-12-16T08:44:02.758Z,1006.68
2022-12-16T08:45:02.735Z,1006.72
2022-12-16T08:46:02.752Z,1006.72
2022-12-16T08:47:02.682Z,1006.76
2022-12-16T08:48:02.653Z,1006.76
2022-12-16T08:49:02.648Z,1006.79
2022-12-16T08:50:02.859Z,1006.82
2022-12-16T08:51:02.578Z,1006.85
2022-12-16T08:52:02.544Z,1006.88
2022-12-16T08:53:02.517Z,1006.88
2022-12-16T08:54:02.491Z,1006.91
2022-12-16T08:55:02.465Z,1006.93
2022-12-16T08:56:02.434Z,1006.89
2022-12-16T08:57:02.410Z,1006.93
2022-12-16T08:58:02.388Z,1006.97
2022-12-16T08:59:02.356Z,1007.04
2022-12-16T09:00:02.328Z,1007.02
2022-12-16T09:01:06.963Z,1007.07
2022-12-16T09:02:02.453Z,1007.11
2022-12-16T09:03:02.507Z,1007.07
2022-12-16T09:04:02.285Z,1007.10
2022-12-16T09:05:02.227Z,1007.10
2022-12-16T09:06:02.170Z,1007.12
2022-12-16T09:07:02.146Z,1007.11
2022-12-16T09:08:02.109Z,1007.12
2022-12-16T09:09:02.092Z,1007.10
2022-12-16T09:10:02.065Z,1007.06
2022-12-16T09:11:02.032Z,1007.10
2022-12-16T09:12:02.005Z,1007.15
2022-12-16T09:13:01.984Z,1007.11
2022-12-16T09:14:01.957Z,1007.12
2022-12-16T09:15:01.924Z,1007.16
2022-12-16T09:16:02.016Z,1007.20
2022-12-16T09:17:01.873Z,1007.16
2022-12-16T09:18:01.845Z,1007.18
2022-12-16T09:19:01.820Z,1007.18
2022-12-16T09:20:01.789Z,1007.22
2022-12-16T09:21:01.793Z,1007.21
2022-12-16T09:22:01.743Z,1007.23
2022-12-16T09:23:01.709Z,1007.25
2022-12-16T09:24:01.674Z,1007.28
2022-12-16T09:25:01.658Z,1007.27
2022-12-16T09:26:01.699Z,1007.27
2022-12-16T09:27:01.603Z,1007.27
2022-12-16T09:28:01.566Z,1007.27
2022-12-16T09:29:01.548Z,1007.25
2022-12-16T09:30:01.515Z,1007.22
2022-12-16T09:31:01.594Z,1007.26
2022-12-16T09:32:01.470Z,1007.26
2022-12-16T09:33:01.434Z,1007.25
2022-12-16T09:34:01.421Z,1007.31
2022-12-16T09:35:01.377Z,1007.30
2022-12-16T09:36:01.365Z,1007.30
2022-12-16T09:37:01.380Z,1007.33
2022-12-16T09:38:01.312Z,1007.35
2022-12-16T09:39:01.270Z,1007.35
2022-12-16T09:40:01.248Z,1007.35
2022-12-16T09:41:01.225Z,1007.40
2022-12-16T09:42:01.198Z,1007.38
2022-12-16T09:43:01.161Z,1007.39
2022-12-16T09:44:01.126Z,1007.47
2022-12-16T09:45:01.098Z,1007.44
2022-12-16T09:46:01.163Z,1007.55
2022-12-16T09:47:06.654Z,1007.60
2022-12-16T09:48:01.033Z,1007.62
2022-12-16T09:49:00.998Z,1007.63
2022-12-16T09:50:00.970Z,1007.60
2022-12-16T09:51:00.947Z,1007.74
2022-12-16T09:52:00.907Z,1007.96
2022-12-16T09:53:00.906Z,1008.28
2022-12-16T09:54:00.856Z,1008.31
2022-12-16T09:55:00.834Z,1008.60
2022-12-16T09:56:00.803Z,1008.77
2022-12-16T09:57:00.783Z,1008.80
2022-12-16T09:58:00.757Z,1008.43
2022-12-16T09:59:00.731Z,1008.05
2022-12-16T10:00:00.708Z,1007.90
2022-12-16T10:01:00.681Z,1007.96
2022-12-16T10:02:00.782Z,1008.01
2022-12-16T10:03:06.470Z,1008.18
2022-12-16T10:04:00.695Z,1008.08
2022-12-16T10:05:00.583Z,1007.97
2022-12-16T10:06:00.571Z,1007.88
2022-12-16T10:07:00.537Z,1007.89
2022-12-16T10:08:00.511Z,1007.97
2022-12-16T10:09:00.498Z,1008.24
2022-12-16T10:10:00.468Z,1008.14
2022-12-16T10:11:00.439Z,1008.15
2022-12-16T10:12:00.415Z,1008.25
2022-12-16T10:13:00.388Z,1008.35
2022-12-16T10:14:00.369Z,1008.54
2022-12-16T10:15:00.343Z,1008.69
2022-12-16T10:16:00.372Z,1008.65
2022-12-16T10:17:00.295Z,1008.51
2022-12-16T10:18:00.297Z,1008.24
2022-12-16T10:19:00.294Z,1008.18
2022-12-16T10:20:05.964Z,1008.32
2022-12-16T10:21:00.216Z,1008.64
2022-12-16T10:22:00.186Z,1008.39
2022-12-16T10:23:00.155Z,1008.22
2022-12-16T10:24:00.139Z,1008.20
2022-12-16T10:25:00.159Z,1008.33
2022-12-16T10:26:00.123Z,1008.25
2022-12-16T10:27:00.082Z,1008.18
2022-12-16T10:28:00.044Z,1008.12
2022-12-16T10:29:00.022Z,1008.08
2022-12-16T10:29:59.995Z,1008.13
2022-12-16T10:31:00.011Z,1008.27
2022-12-16T10:31:59.958Z,1008.30
2022-12-16T10:32:59.925Z,1008.51
2022-12-16T10:33:59.901Z,1008.57
2022-12-16T10:34:59.885Z,1008.53
2022-12-16T10:35:59.873Z,1008.28
2022-12-16T10:36:59.833Z,1008.24
2022-12-16T10:37:59.820Z,1008.22
2022-12-16T10:38:59.796Z,1008.21
2022-12-16T10:39:59.781Z,1008.29
2022-12-16T10:40:59.779Z,1008.33
2022-12-16T10:41:59.724Z,1008.29
2022-12-16T10:42:59.697Z,1008.27
2022-12-16T10:43:59.676Z,1008.44
2022-12-16T10:44:59.665Z,1008.40
2022-12-16T10:45:59.720Z,1008.33
2022-12-16T10:46:59.646Z,1008.09
2022-12-16T10:47:59.589Z,1008.21
2022-12-16T10:48:59.625Z,1008.27
2022-12-16T10:49:59.606Z,1008.11
2022-12-16T10:50:59.523Z,1008.17
2022-12-16T10:52:02.757Z,1008.10
2022-12-16T10:52:59.479Z,1008.22
2022-12-16T10:53:59.450Z,1008.23
2022-12-16T10:54:59.428Z,1008.34
2022-12-16T10:55:59.406Z,1008.58
2022-12-16T10:56:59.509Z,1008.69
2022-12-16T10:57:59.367Z,1008.55
2022-12-16T10:58:59.336Z,1008.49
2022-12-16T10:59:59.316Z,1008.47
2022-12-16T11:00:59.296Z,1008.54
2022-12-16T11:01:59.439Z,1008.48
2022-12-16T11:02:59.561Z,1008.43
2022-12-16T11:03:59.343Z,1008.46
2022-12-16T11:04:59.225Z,1008.44
2022-12-16T11:05:59.192Z,1008.44
2022-12-16T11:06:59.167Z,1008.44
2022-12-16T11:07:59.148Z,1008.45
2022-12-16T11:08:59.130Z,1008.42
2022-12-16T11:09:59.108Z,1008.31
2022-12-16T11:10:59.087Z,1008.26
2022-12-16T11:11:59.062Z,1008.34
2022-12-16T11:12:59.096Z,1008.27
2022-12-16T11:13:59.026Z,1008.27
2022-12-16T11:15:27.639Z,1008.32
2022-12-16T11:15:59.081Z,1008.36
2022-12-16T11:16:58.950Z,1008.33
2022-12-16T11:17:58.936Z,1008.27
2022-12-16T11:18:58.910Z,1008.27
2022-12-16T11:19:58.891Z,1008.33
2022-12-16T11:20:58.890Z,1008.36
2022-12-16T11:21:58.845Z,1008.31
2022-12-16T11:22:58.831Z,1008.31
2022-12-16T11:23:58.804Z,1008.31
2022-12-16T11:24:58.778Z,1008.32
2022-12-16T11:25:58.760Z,1008.31
2022-12-16T11:26:58.741Z,1008.28
2022-12-16T11:27:58.720Z,1008.19
2022-12-16T11:28:58.793Z,1008.21
2022-12-16T11:29:58.676Z,1008.23
2022-12-16T11:30:58.718Z,1008.23
2022-12-16T11:32:01.229Z,1008.28
2022-12-16T11:32:58.638Z,1008.37
2022-12-16T11:33:58.600Z,1008.43
2022-12-16T11:34:58.572Z,1008.40
2022-12-16T11:35:58.565Z,1008.35
2022-12-16T11:36:58.523Z,1008.43
2022-12-16T11:37:58.506Z,1008.44
2022-12-16T11:38:58.503Z,1008.45
2022-12-16T11:39:58.461Z,1008.11
2022-12-16T11:40:58.447Z,1008.11
2022-12-16T11:41:58.421Z,1008.09
2022-12-16T11:43:01.382Z,1008.08
2022-12-16T11:43:58.400Z,1008.15
2022-12-16T11:44:58.383Z,1008.20
2022-12-16T11:45:58.339Z,1008.12
2022-12-16T11:46:58.368Z,1008.07
2022-12-16T11:47:58.298Z,1008.10
2022-12-16T11:48:58.268Z,1008.13
2022-12-16T11:49:58.261Z,1008.11
2022-12-16T11:50:58.229Z,1008.13
2022-12-16T11:52:20.908Z,1008.15
2022-12-16T11:52:58.184Z,1008.14
2022-12-16T11:53:58.173Z,1008.15
2022-12-16T11:54:58.148Z,1008.15
2022-12-16T11:56:12.513Z,1008.14
2022-12-16T11:56:58.247Z,1008.20
2022-12-16T11:57:58.080Z,1008.20
2022-12-16T11:58:58.059Z,1008.21
2022-12-16T11:59:58.044Z,1008.18
2022-12-16T12:00:58.059Z,1008.19
2022-12-16T12:01:58.054Z,1008.19
2022-12-16T12:02:58.065Z,1008.19
2022-12-16T12:03:58.119Z,1008.23
2022-12-16T12:04:57.933Z,1008.26